Deusa Dos Mares — CUIT7 — position and weather

sailwx.info

Track history (hours):
 
Tides and Currents Weather Stations Pressure Air Temp Water Temp Dewpoint Dewpoint Depression Visibility Wind Speed Wind Dir Waves Ship Positions

Deusa Dos Mares

Last reported at 2018-Jun-21 13:46 UTC. Time now 2018-Jun-21 14:12 UTC.
Position N 39°15' W 009°26'.

Type: Fishing. MMSI: 263433660.

Date/timePositionNaut miles runAvg speedWind from/ knotsBaromVisibWave heightAir tempDewpointWater temp
2018-Jun-21 13:46N 39°15' W 009°26'4 0.4
2018-Jun-21 05:19N 39°18' W 009°26'1 0.1
2018-Jun-20 22:30N 39°17' W 009°25'5 9.1
2018-Jun-20 22:00N 39°14' W 009°29'2 4.2
2018-Jun-20 21:28N 39°12' W 009°30'0 0.2
2018-Jun-20 20:57N 39°12' W 009°30'0 0.2
2018-Jun-20 20:30N 39°12' W 009°30'1 1.4
2018-Jun-20 20:00N 39°11' W 009°30'1 1.7
2018-Jun-20 19:31N 39°12' W 009°30'0 0.3
2018-Jun-20 19:00N 39°12' W 009°30'4 6.7
2018-Jun-20 18:22N 39°16' W 009°28'2 0.1
2018-Jun-19 22:44N 39°15' W 009°26'2 9.0
2018-Jun-19 22:29N 39°13' W 009°27'4 9.2
2018-Jun-19 22:01N 39°10' W 009°30'2 3.2
2018-Jun-19 21:31N 39°08' W 009°31'0 0.4
2018-Jun-19 21:00N 39°08' W 009°30'0 0.4
2018-Jun-19 20:30N 39°08' W 009°30'2 3.1
2018-Jun-19 20:01N 39°10' W 009°29'5 1.5
2018-Jun-19 16:40N 39°14' W 009°28'1 5.4
2018-Jun-19 16:29N 39°14' W 009°29'0 0.3
2018-Jun-19 15:59N 39°14' W 009°29'0 0.2
2018-Jun-19 15:30N 39°14' W 009°29'0 0.1
2018-Jun-19 15:00N 39°14' W 009°29'1 1.4
2018-Jun-19 14:05N 39°13' W 009°27'0 1.2
2018-Jun-19 13:58N 39°13' W 009°27'3 0.1
2018-Jun-18 14:44N 39°16' W 009°26'  
2018-Jun-15 15:47N 39°09' W 009°24'6 0.3
2018-Jun-14 22:17N 39°14' W 009°25'3 9.0
2018-Jun-14 21:54N 39°11' W 009°26'3 8.8
2018-Jun-14 21:31N 39°08' W 009°27'1 2.5
2018-Jun-14 21:00N 39°06' W 009°28'0 0.6
2018-Jun-14 20:30N 39°07' W 009°28'5 1.4
2018-Jun-14 16:59N 39°10' W 009°23'3 0.1
2018-Jun-12 22:31N 39°14' W 009°25'0 8.6
2018-Jun-12 22:29N 39°13' W 009°25'4 8.5
2018-Jun-12 22:00N 39°09' W 009°27'3 6.3
2018-Jun-12 21:29N 39°06' W 009°28'0 1.0
2018-Jun-12 21:00N 39°07' W 009°28'0 0.6
2018-Jun-12 20:30N 39°07' W 009°28'0 0.8
2018-Jun-12 20:00N 39°07' W 009°28'3 5.2
2018-Jun-12 19:25N 39°09' W 009°24'0 0.6
2018-Jun-12 19:00N 39°09' W 009°24'0 0.0
2018-Jun-12 18:30N 39°09' W 009°24'0 0.0
2018-Jun-12 18:00N 39°09' W 009°24'0 0.0
2018-Jun-12 17:30N 39°09' W 009°24'0 0.0
2018-Jun-12 17:00N 39°09' W 009°24'0 0.0
2018-Jun-12 16:30N 39°09' W 009°24'0 0.0
2018-Jun-12 15:59N 39°09' W 009°24'1 1.1
2018-Jun-12 15:29N 39°10' W 009°24'5 0.3
2018-Jun-11 21:59N 39°15' W 009°25'4 8.9
2018-Jun-11 21:30N 39°11' W 009°26'2 2.6
2018-Jun-11 20:50N 39°09' W 009°26'0 0.3
2018-Jun-11 20:30N 39°09' W 009°26'0 0.3
2018-Jun-11 20:00N 39°09' W 009°26'1 1.9
2018-Jun-11 19:30N 39°10' W 009°25'  
Track history (hours):
 
Tides and Currents Weather Stations Pressure Air Temp Water Temp Dewpoint Dewpoint Depression Visibility Wind Speed Wind Dir Waves Ship Positions

Deusa Dos Mares

Last reported at 2018-Jun-21 13:46 UTC. Time now 2018-Jun-21 14:12 UTC.
Position N 39°15' W 009°26'.

Type: Fishing. MMSI: 263433660.

Date/timePositionNaut miles runAvg speedWind from/ knotsBaromVisibWave heightAir tempDewpointWater temp
2018-Jun-21 13:46N 39°15' W 009°26'4 0.4
2018-Jun-21 05:19N 39°18' W 009°26'1 0.1
2018-Jun-20 22:30N 39°17' W 009°25'5 9.1
2018-Jun-20 22:00N 39°14' W 009°29'2 4.2
2018-Jun-20 21:28N 39°12' W 009°30'0 0.2
2018-Jun-20 20:57N 39°12' W 009°30'0 0.2
2018-Jun-20 20:30N 39°12' W 009°30'1 1.4
2018-Jun-20 20:00N 39°11' W 009°30'1 1.7
2018-Jun-20 19:31N 39°12' W 009°30'0 0.3
2018-Jun-20 19:00N 39°12' W 009°30'4 6.7
2018-Jun-20 18:22N 39°16' W 009°28'2 0.1
2018-Jun-19 22:44N 39°15' W 009°26'2 9.0
2018-Jun-19 22:29N 39°13' W 009°27'4 9.2
2018-Jun-19 22:01N 39°10' W 009°30'2 3.2
2018-Jun-19 21:31N 39°08' W 009°31'0 0.4
2018-Jun-19 21:00N 39°08' W 009°30'0 0.4
2018-Jun-19 20:30N 39°08' W 009°30'2 3.1
2018-Jun-19 20:01N 39°10' W 009°29'5 1.5
2018-Jun-19 16:40N 39°14' W 009°28'1 5.4
2018-Jun-19 16:29N 39°14' W 009°29'0 0.3
2018-Jun-19 15:59N 39°14' W 009°29'0 0.2
2018-Jun-19 15:30N 39°14' W 009°29'0 0.1
2018-Jun-19 15:00N 39°14' W 009°29'1 1.4
2018-Jun-19 14:05N 39°13' W 009°27'0 1.2
2018-Jun-19 13:58N 39°13' W 009°27'3 0.1
2018-Jun-18 14:44N 39°16' W 009°26'  
2018-Jun-15 15:47N 39°09' W 009°24'6 0.3
2018-Jun-14 22:17N 39°14' W 009°25'3 9.0
2018-Jun-14 21:54N 39°11' W 009°26'3 8.8
2018-Jun-14 21:31N 39°08' W 009°27'1 2.5
2018-Jun-14 21:00N 39°06' W 009°28'0 0.6
2018-Jun-14 20:30N 39°07' W 009°28'5 1.4
2018-Jun-14 16:59N 39°10' W 009°23'3 0.1
2018-Jun-12 22:31N 39°14' W 009°25'0 8.6
2018-Jun-12 22:29N 39°13' W 009°25'4 8.5
2018-Jun-12 22:00N 39°09' W 009°27'3 6.3
2018-Jun-12 21:29N 39°06' W 009°28'0 1.0
2018-Jun-12 21:00N 39°07' W 009°28'0 0.6
2018-Jun-12 20:30N 39°07' W 009°28'0 0.8
2018-Jun-12 20:00N 39°07' W 009°28'3 5.2
2018-Jun-12 19:25N 39°09' W 009°24'0 0.6
2018-Jun-12 19:00N 39°09' W 009°24'0 0.0
2018-Jun-12 18:30N 39°09' W 009°24'0 0.0
2018-Jun-12 18:00N 39°09' W 009°24'0 0.0
2018-Jun-12 17:30N 39°09' W 009°24'0 0.0
2018-Jun-12 17:00N 39°09' W 009°24'0 0.0
2018-Jun-12 16:30N 39°09' W 009°24'0 0.0
2018-Jun-12 15:59N 39°09' W 009°24'1 1.1
2018-Jun-12 15:29N 39°10' W 009°24'5 0.3
2018-Jun-11 21:59N 39°15' W 009°25'4 8.9
2018-Jun-11 21:30N 39°11' W 009°26'2 2.6
2018-Jun-11 20:50N 39°09' W 009°26'0 0.3
2018-Jun-11 20:30N 39°09' W 009°26'0 0.3
2018-Jun-11 20:00N 39°09' W 009°26'1 1.9
2018-Jun-11 19:30N 39°10' W 009°25'  

Dump ship's entire track history